Time;durP1;ratioP1;P1;durP2;ratioP2;P2;SDS_P1;SDS_P2;PMS_P1;PMS_P2;Temp;Humidity;BMP_temperature;BMP_pressure;BME280_temperature;BME280_humidity;BME280_pressure;Samples;Min_cycle;Max_cycle;Signal;HPM_P1;HPM_P2
2023/07/12 00:01:10;;;;;;;4.75;2.55;;;19.10;99.90;;;;;;5045373;28;20051;-82
2023/07/12 00:03:36;;;;;;;4.15;2.50;;;19.10;99.90;;;;;;5052721;28;20643;-82
2023/07/12 00:06:01;;;;;;;4.95;2.70;;;19.10;99.90;;;;;;5042265;28;20127;-81
2023/07/12 00:08:29;;;;;;;5.25;2.92;;;19.00;99.90;;;;;;5041376;28;20238;-82
2023/07/12 00:10:56;;;;;;;6.32;3.58;;;19.10;99.90;;;;;;5046097;28;20573;-82
2023/07/12 00:13:23;;;;;;;4.95;3.13;;;19.10;99.90;;;;;;5071829;28;20493;-81
2023/07/12 00:15:50;;;;;;;5.78;2.75;;;19.00;99.90;;;;;;5050794;28;20056;-82
2023/07/12 00:18:22;;;;;;;3.92;2.85;;;19.00;99.90;;;;;;5052662;28;20048;-81
2023/07/12 00:20:50;;;;;;;5.28;3.10;;;19.00;99.90;;;;;;5059189;28;20409;-82
2023/07/12 00:23:17;;;;;;;4.50;2.92;;;19.00;99.90;;;;;;5044841;28;20087;-82
2023/07/12 00:25:45;;;;;;;7.45;3.35;;;19.00;99.90;;;;;;5066618;28;20053;-82
2023/07/12 00:28:24;;;;;;;4.55;3.15;;;19.00;99.90;;;;;;5059004;28;20052;-82
2023/07/12 00:30:51;;;;;;;4.22;3.30;;;19.00;99.90;;;;;;5049534;28;20048;-81
2023/07/12 00:33:18;;;;;;;3.90;3.08;;;19.00;99.90;;;;;;5042509;28;20056;-80
2023/07/12 00:35:44;;;;;;;6.20;3.67;;;19.00;99.90;;;;;;5047558;28;20049;-81
2023/07/12 00:38:17;;;;;;;6.00;3.97;;;19.00;99.90;;;;;;5054457;28;20109;-81
2023/07/12 00:40:55;;;;;;;4.88;3.50;;;19.00;99.90;;;;;;5067140;28;20536;-81
2023/07/12 00:43:33;;;;;;;4.38;3.45;;;19.00;99.90;;;;;;5043509;28;20075;-81
2023/07/12 00:46:02;;;;;;;4.72;4.15;;;18.90;99.90;;;;;;5060007;28;20495;-82
2023/07/12 00:48:28;;;;;;;5.13;3.83;;;18.90;99.90;;;;;;5052521;28;20043;-81
2023/07/12 00:50:54;;;;;;;4.53;4.00;;;18.90;99.90;;;;;;5061742;28;20044;-81
2023/07/12 00:53:23;;;;;;;5.20;3.33;;;18.90;99.90;;;;;;5045589;28;20044;-82
2023/07/12 00:55:56;;;;;;;4.97;3.47;;;18.90;99.90;;;;;;5060111;28;20095;-81
2023/07/12 00:58:24;;;;;;;6.40;3.22;;;18.90;99.90;;;;;;5057989;28;20094;-82
2023/07/12 01:00:52;;;;;;;6.75;3.72;;;18.90;99.90;;;;;;5055343;28;20080;-81
2023/07/12 01:03:22;;;;;;;6.38;4.60;;;18.90;99.90;;;;;;5040991;28;20127;-82
2023/07/12 01:05:48;;;;;;;5.90;3.90;;;18.90;99.90;;;;;;5039731;28;20135;-82
2023/07/12 01:08:15;;;;;;;5.55;4.47;;;18.90;99.90;;;;;;5037020;28;20056;-81
2023/07/12 01:10:41;;;;;;;6.20;5.40;;;18.90;99.90;;;;;;5038557;28;20052;-82
2023/07/12 01:13:09;;;;;;;6.22;4.38;;;18.90;99.90;;;;;;5033535;28;20076;-81
2023/07/12 01:15:35;;;;;;;5.88;4.63;;;18.90;99.90;;;;;;5015434;28;20056;-82
2023/07/12 01:18:06;;;;;;;7.85;4.90;;;18.90;99.90;;;;;;5044970;28;20047;-81
2023/07/12 01:20:38;;;;;;;4.85;4.13;;;18.90;99.90;;;;;;5058990;28;20551;-82
2023/07/12 01:23:04;;;;;;;5.38;4.10;;;18.80;99.90;;;;;;5064261;28;20071;-81
2023/07/12 01:25:34;;;;;;;6.15;4.43;;;18.80;99.90;;;;;;5050985;28;20074;-81
2023/07/12 01:28:00;;;;;;;6.25;4.55;;;18.80;99.90;;;;;;5053115;28;20036;-81
2023/07/12 01:30:26;;;;;;;6.38;4.82;;;18.70;99.90;;;;;;5066619;28;20066;-81
2023/07/12 01:32:52;;;;;;;8.13;4.63;;;18.70;99.90;;;;;;5045563;28;20098;-81
2023/07/12 01:35:18;;;;;;;5.35;4.13;;;18.70;99.90;;;;;;5064254;28;20043;-81
2023/07/12 01:37:44;;;;;;;6.45;4.22;;;18.60;99.90;;;;;;5068219;28;20432;-81
2023/07/12 01:40:10;;;;;;;7.65;4.55;;;18.60;99.90;;;;;;5062784;28;20052;-82
2023/07/12 01:42:36;;;;;;;6.85;4.50;;;18.60;99.90;;;;;;5058437;28;20044;-81
2023/07/12 01:45:03;;;;;;;6.38;4.88;;;18.60;99.90;;;;;;5062646;28;20436;-82
2023/07/12 01:47:30;;;;;;;5.57;4.78;;;18.50;99.90;;;;;;5056072;28;20354;-81
2023/07/12 01:49:56;;;;;;;7.35;4.40;;;18.50;99.90;;;;;;5045334;28;20045;-82
2023/07/12 01:52:23;;;;;;;7.20;4.45;;;18.50;99.90;;;;;;5055351;28;20127;-81
2023/07/12 01:54:49;;;;;;;8.82;5.30;;;18.40;99.90;;;;;;5048748;28;20399;-81
2023/07/12 01:57:15;;;;;;;7.25;4.60;;;18.50;99.90;;;;;;5039368;28;20044;-81
2023/07/12 01:59:41;;;;;;;6.80;4.90;;;18.40;99.90;;;;;;5042423;28;20292;-82
2023/07/12 02:02:07;;;;;;;8.23;4.40;;;18.40;99.90;;;;;;5041985;28;20421;-82
2023/07/12 02:04:33;;;;;;;7.85;4.32;;;18.40;99.90;;;;;;5048733;28;20067;-82
2023/07/12 02:06:59;;;;;;;5.75;4.28;;;18.40;99.90;;;;;;5059359;28;20470;-81
2023/07/12 02:09:27;;;;;;;7.97;4.78;;;18.30;99.90;;;;;;5057610;28;20044;-82
2023/07/12 02:11:53;;;;;;;6.18;4.20;;;18.30;99.90;;;;;;5059708;28;20052;-81
2023/07/12 02:14:18;;;;;;;9.20;4.93;;;18.30;99.90;;;;;;5037949;28;20048;-81
2023/07/12 02:16:44;;;;;;;6.20;4.97;;;18.30;99.90;;;;;;5035297;28;20138;-82
2023/07/12 02:19:10;;;;;;;9.60;5.75;;;18.20;99.90;;;;;;5060538;28;20486;-82
2023/07/12 02:21:36;;;;;;;8.23;5.30;;;18.20;99.90;;;;;;5048705;28;20037;-81
2023/07/12 02:24:02;;;;;;;9.52;4.93;;;18.10;99.90;;;;;;5033953;28;20043;-82
2023/07/12 02:26:28;;;;;;;8.80;4.90;;;18.10;99.90;;;;;;5059365;28;20048;-82
2023/07/12 02:28:54;;;;;;;7.72;5.05;;;18.00;99.90;;;;;;5059621;28;20047;-81
2023/07/12 02:31:22;;;;;;;8.25;5.38;;;18.00;99.90;;;;;;5062231;28;20032;-82
2023/07/12 02:33:49;;;;;;;7.18;4.65;;;18.00;99.90;;;;;;5056023;28;20048;-82
2023/07/12 02:36:16;;;;;;;6.88;5.25;;;17.90;99.90;;;;;;5059244;28;20086;-81
2023/07/12 02:38:41;;;;;;;9.32;5.90;;;17.90;99.90;;;;;;5043640;28;20075;-82
2023/07/12 02:41:10;;;;;;;9.00;5.07;;;17.90;99.90;;;;;;5040341;28;20839;-82
2023/07/12 02:43:36;;;;;;;10.90;5.85;;;17.90;99.90;;;;;;5057284;28;20494;-82
2023/07/12 02:46:03;;;;;;;8.65;5.15;;;17.90;99.90;;;;;;5054186;28;20051;-82
2023/07/12 02:48:28;;;;;;;6.97;4.65;;;17.80;99.90;;;;;;5042657;28;20047;-82
2023/07/12 02:50:54;;;;;;;7.57;4.53;;;17.80;99.90;;;;;;5051691;28;20416;-82
2023/07/12 02:53:21;;;;;;;8.82;4.32;;;17.80;99.90;;;;;;5054112;28;20474;-82
2023/07/12 02:55:49;;;;;;;9.07;4.78;;;17.80;99.90;;;;;;5046594;28;20502;-82
2023/07/12 02:58:15;;;;;;;10.30;5.15;;;17.80;99.90;;;;;;5044160;28;20039;-82
2023/07/12 03:00:41;;;;;;;9.32;5.28;;;17.80;99.90;;;;;;5036180;28;20075;-82
2023/07/12 03:03:09;;;;;;;10.32;4.70;;;17.80;99.90;;;;;;5061132;28;20178;-81
2023/07/12 03:05:36;;;;;;;10.05;5.65;;;17.80;99.90;;;;;;5044117;28;20044;-83
2023/07/12 03:08:01;;;;;;;10.65;5.95;;;17.80;99.90;;;;;;5058574;28;20059;-83
2023/07/12 03:10:27;;;;;;;12.32;5.60;;;17.80;99.90;;;;;;5042298;28;20048;-82
2023/07/12 03:12:54;;;;;;;10.55;5.55;;;17.80;99.90;;;;;;5043071;28;20411;-82
2023/07/12 03:15:20;;;;;;;10.82;6.90;;;17.80;99.90;;;;;;5050672;28;20075;-82
2023/07/12 03:17:46;;;;;;;9.80;5.28;;;17.70;99.90;;;;;;5061110;28;20068;-82
2023/07/12 03:20:12;;;;;;;12.05;6.55;;;17.80;99.90;;;;;;5051540;28;20514;-83
2023/07/12 03:22:41;;;;;;;15.93;6.45;;;17.70;99.90;;;;;;5056525;28;20044;-81
2023/07/12 03:25:10;;;;;;;11.90;6.50;;;17.60;99.90;;;;;;5046921;28;20045;-82
2023/07/12 03:27:35;;;;;;;12.80;6.80;;;17.60;99.90;;;;;;5053327;28;20040;-82
2023/07/12 03:30:01;;;;;;;14.48;6.32;;;17.50;99.90;;;;;;5059341;28;20099;-82
2023/07/12 03:32:27;;;;;;;14.68;6.40;;;17.50;99.90;;;;;;5051088;28;20087;-82
2023/07/12 03:34:53;;;;;;;12.70;7.38;;;17.50;99.90;;;;;;5045391;28;20102;-82
2023/07/12 03:37:19;;;;;;;11.40;5.90;;;17.40;99.90;;;;;;5054218;28;20044;-82
2023/07/12 03:39:45;;;;;;;12.15;6.10;;;17.40;99.90;;;;;;5036422;28;20061;-82
2023/07/12 03:42:11;;;;;;;9.02;5.88;;;17.40;99.90;;;;;;5033376;28;20360;-82
2023/07/12 03:44:37;;;;;;;9.93;5.53;;;17.40;99.90;;;;;;5050135;28;20083;-82
2023/07/12 03:47:03;;;;;;;9.68;5.40;;;17.40;99.90;;;;;;5051351;28;20037;-83
2023/07/12 03:49:29;;;;;;;13.65;5.95;;;17.40;99.90;;;;;;5038540;28;20114;-83
2023/07/12 03:51:54;;;;;;;9.45;5.28;;;17.40;99.90;;;;;;5045442;28;20050;-83
2023/07/12 03:54:21;;;;;;;10.30;5.70;;;17.40;99.90;;;;;;5053269;28;20360;-82
2023/07/12 03:56:47;;;;;;;11.05;6.88;;;17.40;99.90;;;;;;5040602;28;20045;-82
2023/07/12 03:59:13;;;;;;;10.95;6.15;;;17.40;99.90;;;;;;5055343;28;20410;-82
2023/07/12 04:01:39;;;;;;;12.18;6.70;;;17.40;99.90;;;;;;5052564;28;20561;-82
2023/07/12 04:04:05;;;;;;;10.32;6.10;;;17.40;99.90;;;;;;5043873;28;20266;-82
2023/07/12 04:06:32;;;;;;;10.93;6.53;;;17.40;99.90;;;;;;5031021;28;20487;-83
2023/07/12 04:08:57;;;;;;;12.05;6.72;;;17.40;99.90;;;;;;5045105;28;20319;-82
2023/07/12 04:11:29;;;;;;;12.38;6.60;;;17.40;99.90;;;;;;5056075;28;20048;-82
2023/07/12 04:13:55;;;;;;;12.63;7.25;;;17.40;99.90;;;;;;5049423;28;21552;-82
2023/07/12 04:16:24;;;;;;;10.63;6.82;;;17.30;99.90;;;;;;5061439;28;20151;-82
2023/07/12 04:18:51;;;;;;;10.52;6.70;;;17.30;99.90;;;;;;5038138;28;20056;-82
2023/07/12 04:21:17;;;;;;;14.18;7.47;;;17.30;99.90;;;;;;5042320;28;20048;-82
2023/07/12 04:23:43;;;;;;;13.15;6.88;;;17.30;99.90;;;;;;5052902;28;20041;-82
2023/07/12 04:26:09;;;;;;;12.90;6.10;;;17.30;99.90;;;;;;5039804;28;20041;-82
2023/07/12 04:28:43;;;;;;;12.18;7.28;;;17.30;99.90;;;;;;5047810;28;20098;-82
2023/07/12 04:31:12;;;;;;;11.02;6.03;;;17.30;99.90;;;;;;5041164;28;20458;-82
2023/07/12 04:33:41;;;;;;;11.00;6.13;;;17.30;99.90;;;;;;5039218;28;20044;-82
2023/07/12 04:36:10;;;;;;;13.70;6.97;;;17.30;99.90;;;;;;5055803;28;20036;-82
2023/07/12 04:38:36;;;;;;;14.45;7.43;;;17.30;99.90;;;;;;5046835;28;20041;-82
2023/07/12 04:41:03;;;;;;;13.02;6.97;;;17.20;99.90;;;;;;5054490;28;20572;-82
2023/07/12 04:43:29;;;;;;;10.23;6.53;;;17.30;99.90;;;;;;5037023;28;20045;-82
2023/07/12 04:45:56;;;;;;;16.88;8.00;;;17.20;99.90;;;;;;5044277;28;20041;-82
2023/07/12 04:48:22;;;;;;;11.45;6.57;;;17.20;99.90;;;;;;5054340;28;20048;-82
2023/07/12 04:50:53;;;;;;;10.32;6.13;;;17.20;99.90;;;;;;5043622;28;20055;-81
2023/07/12 04:53:20;;;;;;;13.70;6.45;;;17.20;99.90;;;;;;5054118;28;20487;-81
2023/07/12 04:55:46;;;;;;;14.93;7.32;;;17.20;99.90;;;;;;5039999;28;20079;-81
2023/07/12 04:58:13;;;;;;;11.38;6.57;;;17.20;99.90;;;;;;5039261;28;20035;-81
2023/07/12 05:00:39;;;;;;;15.55;6.78;;;17.20;99.90;;;;;;5044843;28;20210;-81
2023/07/12 05:03:05;;;;;;;15.80;7.88;;;17.30;99.90;;;;;;5042806;28;20048;-80
2023/07/12 05:05:31;;;;;;;11.50;7.60;;;17.30;99.90;;;;;;5068979;28;20487;-81
2023/07/12 05:07:57;;;;;;;12.85;7.18;;;17.20;99.90;;;;;;5037555;28;20048;-81
2023/07/12 05:10:23;;;;;;;16.92;8.05;;;17.20;99.90;;;;;;5057727;28;20063;-81
2023/07/12 05:12:49;;;;;;;15.23;7.45;;;17.30;99.90;;;;;;5059548;28;20047;-81
2023/07/12 05:15:18;;;;;;;17.05;7.50;;;17.30;99.90;;;;;;5056666;28;20045;-81
2023/07/12 05:17:44;;;;;;;14.75;7.68;;;17.30;99.90;;;;;;5050670;28;20040;-81
2023/07/12 05:20:12;;;;;;;14.55;7.70;;;17.20;99.90;;;;;;5056468;28;20044;-81
2023/07/12 05:22:38;;;;;;;15.23;8.43;;;17.30;99.90;;;;;;5040830;28;20156;-81
2023/07/12 05:25:04;;;;;;;18.05;8.15;;;17.30;99.90;;;;;;5047108;28;20044;-81
2023/07/12 05:27:30;;;;;;;17.27;8.90;;;17.40;99.90;;;;;;5062498;28;20040;-81
2023/07/12 05:29:56;;;;;;;13.27;8.20;;;17.50;99.90;;;;;;5056133;28;20124;-80
2023/07/12 05:32:22;;;;;;;14.50;7.75;;;17.50;99.90;;;;;;5044114;28;20551;-81
2023/07/12 05:34:48;;;;;;;15.77;9.30;;;17.50;99.90;;;;;;5041795;28;20529;-80
2023/07/12 05:37:14;;;;;;;14.93;8.95;;;17.50;99.90;;;;;;5060812;28;20127;-81
2023/07/12 05:39:40;;;;;;;14.32;8.65;;;17.50;99.90;;;;;;5048434;28;20486;-81
2023/07/12 05:42:06;;;;;;;17.35;8.48;;;17.50;99.90;;;;;;5040677;28;20047;-81
2023/07/12 05:44:32;;;;;;;16.55;9.07;;;17.50;99.90;;;;;;5060054;28;20040;-81
2023/07/12 05:46:58;;;;;;;14.20;8.75;;;17.40;99.90;;;;;;5052119;28;20044;-80
2023/07/12 05:49:24;;;;;;;14.27;8.57;;;17.50;99.90;;;;;;5061044;28;20032;-81
2023/07/12 05:51:51;;;;;;;14.15;8.98;;;17.40;99.90;;;;;;5043551;28;20474;-81
2023/07/12 05:54:17;;;;;;;15.90;9.60;;;17.50;99.90;;;;;;5059154;28;20402;-81
2023/07/12 05:56:42;;;;;;;17.98;9.90;;;17.50;99.90;;;;;;5060868;28;20045;-81
2023/07/12 05:59:10;;;;;;;18.23;10.88;;;17.50;99.90;;;;;;5058894;28;20451;-81
2023/07/12 06:01:35;;;;;;;14.77;10.00;;;17.60;99.90;;;;;;5042928;28;20045;-81
2023/07/12 06:04:01;;;;;;;16.52;10.63;;;17.50;99.90;;;;;;5041256;28;20059;-81
2023/07/12 06:06:27;;;;;;;18.05;10.23;;;17.50;99.90;;;;;;5043323;28;20477;-81
2023/07/12 06:08:54;;;;;;;19.83;11.10;;;17.60;99.90;;;;;;5060549;28;20079;-82
2023/07/12 06:11:19;;;;;;;20.27;12.57;;;17.60;99.90;;;;;;5057047;28;20051;-82
2023/07/12 06:13:45;;;;;;;18.42;11.85;;;17.60;99.90;;;;;;5059216;28;20048;-82
2023/07/12 06:16:11;;;;;;;17.70;11.40;;;17.70;99.90;;;;;;5040797;28;20128;-82
2023/07/12 06:18:37;;;;;;;14.90;10.02;;;17.70;99.90;;;;;;5045709;28;20554;-82
2023/07/12 06:21:06;;;;;;;20.98;11.23;;;17.70;99.90;;;;;;5035646;28;20127;-82
2023/07/12 06:23:32;;;;;;;14.75;9.52;;;17.70;99.90;;;;;;5059853;28;20095;-82
2023/07/12 06:26:00;;;;;;;17.25;10.68;;;17.80;99.90;;;;;;5059671;28;20072;-82
2023/07/12 06:28:26;;;;;;;14.95;10.02;;;17.80;99.90;;;;;;5042801;28;20045;-81
2023/07/12 06:30:52;;;;;;;16.70;10.70;;;17.80;99.90;;;;;;5059087;28;20326;-81
2023/07/12 06:33:18;;;;;;;19.52;12.50;;;17.90;99.90;;;;;;5044982;28;20052;-82
2023/07/12 06:35:44;;;;;;;18.58;11.68;;;17.90;99.90;;;;;;5040203;28;20133;-82
2023/07/12 06:38:10;;;;;;;16.45;11.23;;;17.90;99.90;;;;;;5042025;28;20445;-82
2023/07/12 06:40:38;;;;;;;15.63;10.40;;;17.90;99.90;;;;;;5056671;28;20047;-84
2023/07/12 06:43:04;;;;;;;16.85;9.60;;;17.90;99.90;;;;;;5061290;28;20407;-82
2023/07/12 06:45:30;;;;;;;15.48;9.63;;;17.90;99.90;;;;;;5061050;28;20037;-82
2023/07/12 06:47:56;;;;;;;15.07;9.30;;;17.90;99.90;;;;;;5043718;28;20187;-82
2023/07/12 06:50:22;;;;;;;15.88;9.68;;;17.90;99.90;;;;;;5058096;28;20131;-80
2023/07/12 06:52:48;;;;;;;15.98;10.13;;;17.90;99.90;;;;;;5043782;28;20407;-81
2023/07/12 06:55:14;;;;;;;16.33;10.93;;;18.00;99.90;;;;;;5059797;28;20528;-81
2023/07/12 06:57:40;;;;;;;17.65;12.25;;;18.00;99.90;;;;;;5043501;28;20048;-80
2023/07/12 07:00:08;;;;;;;17.00;10.93;;;18.20;99.90;;;;;;5051804;28;20434;-81
2023/07/12 07:02:34;;;;;;;17.20;10.95;;;18.30;99.90;;;;;;5042539;28;20056;-80
2023/07/12 07:05:00;;;;;;;14.07;9.73;;;18.40;99.90;;;;;;5037505;28;20049;-81
2023/07/12 07:07:27;;;;;;;14.40;10.45;;;18.50;99.90;;;;;;5058563;28;20105;-80
2023/07/12 07:09:53;;;;;;;15.73;10.30;;;18.50;99.90;;;;;;5057144;28;20052;-80
2023/07/12 07:12:19;;;;;;;13.70;10.32;;;18.40;99.90;;;;;;5043207;28;20040;-79
2023/07/12 07:14:45;;;;;;;14.75;8.95;;;18.40;99.90;;;;;;5057466;28;20041;-80
2023/07/12 07:17:13;;;;;;;15.77;9.02;;;18.40;99.90;;;;;;5056655;28;20102;-80
2023/07/12 07:19:39;;;;;;;14.23;10.48;;;18.40;99.90;;;;;;5052902;28;20414;-80
2023/07/12 07:22:05;;;;;;;14.88;7.47;;;18.40;99.90;;;;;;5057304;28;20040;-80
2023/07/12 07:24:31;;;;;;;13.38;7.97;;;18.50;99.90;;;;;;5053130;28;20044;-80
2023/07/12 07:26:57;;;;;;;9.73;6.45;;;18.70;99.90;;;;;;5058694;28;20059;-80
2023/07/12 07:29:23;;;;;;;17.38;7.45;;;18.70;99.90;;;;;;5042090;28;20125;-80
2023/07/12 07:31:48;;;;;;;17.83;8.25;;;18.80;99.90;;;;;;5054356;28;20060;-81
2023/07/12 07:34:14;;;;;;;13.32;7.18;;;18.70;99.90;;;;;;5045205;28;20032;-80
2023/07/12 07:36:41;;;;;;;13.45;7.47;;;18.70;99.90;;;;;;5040281;28;20028;-80
2023/07/12 07:39:07;;;;;;;16.67;7.63;;;18.70;99.90;;;;;;5052724;28;20049;-80
2023/07/12 07:41:33;;;;;;;12.40;7.95;;;18.60;99.90;;;;;;5032762;28;20039;-80
2023/07/12 07:43:59;;;;;;;18.85;7.20;;;18.60;99.90;;;;;;5052661;28;20044;-82
2023/07/12 07:46:25;;;;;;;13.73;7.90;;;18.50;99.90;;;;;;5039590;28;20040;-81
2023/07/12 07:48:52;;;;;;;14.30;8.13;;;18.60;99.90;;;;;;5055998;28;20146;-81
2023/07/12 07:51:18;;;;;;;12.73;7.80;;;18.80;99.90;;;;;;5045820;28;20395;-82
2023/07/12 07:53:44;;;;;;;14.05;7.65;;;19.10;99.90;;;;;;5051674;28;20044;-81
2023/07/12 07:56:11;;;;;;;11.73;7.53;;;19.10;99.90;;;;;;5042917;28;20036;-82
2023/07/12 07:58:37;;;;;;;11.60;8.85;;;19.10;99.90;;;;;;5039278;28;20049;-81
2023/07/12 08:01:03;;;;;;;16.92;9.10;;;19.10;99.90;;;;;;5054960;28;20063;-81
2023/07/12 08:03:34;;;;;;;15.30;8.82;;;19.20;99.90;;;;;;5050438;28;20510;-82
2023/07/12 08:06:02;;;;;;;15.48;9.88;;;19.20;99.90;;;;;;5040524;28;20044;-79
2023/07/12 08:08:29;;;;;;;14.30;9.88;;;19.10;99.90;;;;;;5057920;28;20055;-80
2023/07/12 08:10:54;;;;;;;16.40;9.68;;;19.10;99.90;;;;;;5039847;28;20040;-80
2023/07/12 08:13:20;;;;;;;17.23;8.93;;;19.10;99.90;;;;;;5056409;28;20458;-81
2023/07/12 08:15:46;;;;;;;14.95;8.93;;;19.10;99.90;;;;;;5044485;28;20370;-81
2023/07/12 08:18:12;;;;;;;14.10;7.35;;;19.20;99.90;;;;;;5038878;28;20462;-81
2023/07/12 08:20:39;;;;;;;12.55;5.68;;;19.60;99.90;;;;;;5037182;28;20048;-82
2023/07/12 08:23:06;;;;;;;14.85;6.15;;;19.80;99.90;;;;;;5039018;28;20117;-82
2023/07/12 08:25:32;;;;;;;14.68;6.70;;;19.90;99.90;;;;;;5058018;28;20044;-81
2023/07/12 08:27:58;;;;;;;12.45;6.38;;;19.80;99.90;;;;;;5054889;28;20240;-82
2023/07/12 08:30:24;;;;;;;14.73;7.65;;;19.70;99.90;;;;;;5053946;28;20075;-83
2023/07/12 08:32:49;;;;;;;14.48;7.90;;;19.60;99.90;;;;;;5061790;28;20088;-83
2023/07/12 08:35:15;;;;;;;11.50;8.02;;;19.50;99.90;;;;;;5056463;28;20143;-82
2023/07/12 08:37:41;;;;;;;12.25;7.82;;;19.40;99.90;;;;;;5041576;28;20084;-82
2023/07/12 08:40:11;;;;;;;15.45;8.57;;;19.30;99.90;;;;;;5041415;28;20044;-83
2023/07/12 08:42:42;;;;;;;11.00;6.72;;;19.40;99.90;;;;;;5055898;28;20105;-83
2023/07/12 08:45:31;;;;;;;15.02;7.10;;;19.60;99.90;;;;;;5044265;28;20131;-82
2023/07/12 08:48:02;;;;;;;11.07;5.68;;;19.80;99.90;;;;;;5039246;28;20052;-81
2023/07/12 08:50:37;;;;;;;13.80;6.35;;;19.80;99.90;;;;;;5052309;28;20334;-83
2023/07/12 08:53:04;;;;;;;13.68;7.20;;;19.70;99.90;;;;;;5057672;28;20048;-82
2023/07/12 08:55:34;;;;;;;14.00;7.93;;;19.60;99.90;;;;;;5066447;28;20044;-83
2023/07/12 08:58:15;;;;;;;;;;;19.40;99.90;;;;;;5044404;28;20036;-81
2023/07/12 09:00:42;;;;;;;13.80;7.07;;;19.10;99.90;;;;;;5039942;28;19928;-82
2023/07/12 09:03:08;;;;;;;11.75;6.30;;;18.90;99.90;;;;;;5067289;28;20421;-83
2023/07/12 09:05:34;;;;;;;12.65;7.60;;;18.70;99.90;;;;;;5037977;28;20037;-83
2023/07/12 09:08:23;;;;;;;10.48;6.90;;;18.70;99.90;;;;;;5034993;28;20157;-82
2023/07/12 09:10:58;;;;;;;14.15;8.77;;;18.70;99.90;;;;;;5056089;28;20399;-82
2023/07/12 09:13:39;;;;;;;15.68;7.40;;;18.60;99.90;;;;;;5032668;28;20320;-83
2023/07/12 09:16:32;;;;;;;15.32;8.07;;;18.70;99.90;;;;;;5043322;28;20048;-81
2023/07/12 09:19:12;;;;;;;13.25;7.90;;;19.10;99.90;;;;;;5046027;28;20566;-81
2023/07/12 09:21:39;;;;;;;10.35;7.50;;;19.50;99.90;;;;;;5034452;28;20049;-81
2023/07/12 09:24:22;;;;;;;11.32;7.35;;;19.90;99.90;;;;;;5052891;28;20063;-82
2023/07/12 09:26:50;;;;;;;12.10;7.03;;;20.20;99.90;;;;;;5053852;28;20045;-82
2023/07/12 09:29:15;;;;;;;11.32;6.35;;;20.40;99.90;;;;;;5059362;28;20410;-83
2023/07/12 09:31:44;;;;;;;11.95;6.28;;;20.50;99.90;;;;;;5036444;28;20041;-82
2023/07/12 09:34:39;;;;;;;11.75;5.82;;;20.70;99.90;;;;;;5039990;28;20052;-82
2023/07/12 09:37:17;;;;;;;12.38;5.30;;;20.90;99.90;;;;;;5050621;28;20060;-83
2023/07/12 09:39:54;;;;;;;10.80;5.13;;;21.10;99.90;;;;;;5054365;28;20568;-83
2023/07/12 09:42:20;;;;;;;10.57;5.82;;;21.10;99.90;;;;;;5060637;28;20055;-82
2023/07/12 09:44:47;;;;;;;19.80;7.18;;;21.10;99.90;;;;;;5041768;28;20236;-82
2023/07/12 09:47:37;;;;;;;14.48;6.60;;;20.90;99.90;;;;;;5048948;28;20264;-82
2023/07/12 09:50:27;;;;;;;15.23;7.40;;;20.60;99.90;;;;;;5037400;28;20053;-81
2023/07/12 09:53:24;;;;;;;12.48;7.05;;;20.30;99.90;;;;;;5062834;28;20574;-82
2023/07/12 09:55:59;;;;;;;12.55;4.72;;;20.00;99.90;;;;;;5046445;28;20056;-83
2023/07/12 09:58:39;;;;;;;8.88;4.22;;;19.80;99.90;;;;;;5048354;28;20052;-82
2023/07/12 10:01:20;;;;;;;8.50;3.90;;;19.60;99.90;;;;;;5050098;28;20053;-81
2023/07/12 10:03:52;;;;;;;11.88;4.13;;;19.50;99.90;;;;;;5046687;28;20053;-81
2023/07/12 10:06:27;;;;;;;11.80;4.93;;;19.40;99.90;;;;;;5065359;28;20052;-82
2023/07/12 10:09:05;;;;;;;9.68;5.38;;;19.60;99.90;;;;;;5055195;28;20097;-82
2023/07/12 10:11:39;;;;;;;10.52;5.57;;;19.80;99.90;;;;;;5053821;28;20044;-82
2023/07/12 10:14:09;;;;;;;13.57;5.55;;;20.20;99.90;;;;;;5042249;28;20583;-82
2023/07/12 10:16:54;;;;;;;11.48;5.28;;;20.60;99.90;;;;;;5044963;28;20047;-82
2023/07/12 10:19:41;;;;;;;12.55;5.18;;;20.90;99.90;;;;;;5057520;28;20048;-80
2023/07/12 10:22:20;;;;;;;8.18;3.95;;;21.10;99.90;;;;;;5061127;28;20503;-82
2023/07/12 10:24:50;;;;;;;11.48;4.57;;;21.30;99.90;;;;;;5042482;28;20090;-81
2023/07/12 10:27:23;;;;;;;9.32;3.67;;;21.50;99.90;;;;;;5044635;28;20099;-82
2023/07/12 10:30:04;;;;;;;7.07;3.08;;;21.70;99.90;;;;;;5052161;28;20045;-81
2023/07/12 10:33:10;;;;;;;9.63;3.33;;;21.80;99.90;;;;;;5044159;28;20491;-81
2023/07/12 10:35:46;;;;;;;7.70;3.05;;;21.70;99.90;;;;;;5060349;28;20052;-81
2023/07/12 10:38:18;;;;;;;5.93;2.38;;;21.50;99.90;;;;;;5050699;28;20538;-81
2023/07/12 10:41:12;;;;;;;5.63;2.70;;;21.50;99.90;;;;;;5060561;28;20044;-82
2023/07/12 10:44:04;;;;;;;7.28;2.90;;;21.70;99.90;;;;;;5054674;28;20565;-83
2023/07/12 10:46:37;;;;;;;4.63;2.67;;;21.90;99.90;;;;;;5038622;28;20127;-82
2023/07/12 10:49:12;;;;;;;6.25;2.65;;;22.10;99.90;;;;;;5061370;28;20063;-81
2023/07/12 10:51:41;;;;;;;6.93;2.80;;;22.30;99.90;;;;;;5040432;28;20040;-82
2023/07/12 10:54:26;;;;;;;;;;;22.50;99.90;;;;;;5044968;28;20053;-83
2023/07/12 10:56:55;;;;;;;6.55;3.00;;;22.60;99.90;;;;;;5041721;28;20169;-82
2023/07/12 10:59:32;;;;;;;6.93;2.90;;;22.80;99.90;;;;;;5051439;28;20046;-81
2023/07/12 11:02:04;;;;;;;7.13;3.00;;;22.90;99.90;;;;;;5046688;28;20049;-82
2023/07/12 11:04:30;;;;;;;5.85;2.60;;;22.70;99.90;;;;;;5041835;28;20063;-81
2023/07/12 11:07:07;;;;;;;6.05;2.40;;;22.40;99.90;;;;;;5060541;28;20435;-81
2023/07/12 11:09:42;;;;;;;5.90;3.25;;;22.00;99.90;;;;;;5038632;28;21113;-81
2023/07/12 11:12:13;;;;;;;6.50;2.58;;;21.90;99.90;;;;;;5038985;28;20496;-80
2023/07/12 11:14:38;;;;;;;6.57;2.20;;;21.90;99.90;;;;;;5059496;28;20143;-81
2023/07/12 11:17:11;;;;;;;5.35;2.58;;;22.10;99.90;;;;;;5036298;28;20071;-81
2023/07/12 11:19:39;;;;;;;5.95;2.47;;;22.40;99.90;;;;;;5040078;28;20037;-81
2023/07/12 11:22:13;;;;;;;4.93;2.63;;;22.60;99.90;;;;;;5059918;28;20048;-80
2023/07/12 11:24:52;;;;;;;6.25;2.20;;;22.80;99.90;;;;;;5053723;28;20044;-80
2023/07/12 11:27:53;;;;;;;4.28;2.10;;;22.90;99.90;;;;;;5043445;28;20048;-80
2023/07/12 11:30:36;;;;;;;4.97;2.00;;;23.00;99.90;;;;;;5038521;28;20054;-80
2023/07/12 11:33:15;;;;;;;2.97;1.40;;;23.20;99.90;;;;;;5057159;28;20507;-80
2023/07/12 11:35:53;;;;;;;4.80;1.65;;;23.30;99.90;;;;;;5043569;28;20070;-80
2023/07/12 11:38:25;;;;;;;4.85;1.45;;;23.40;99.90;;;;;;5041803;28;20142;-81
2023/07/12 11:40:54;;;;;;;3.20;1.30;;;23.50;99.90;;;;;;5060015;28;20083;-79
2023/07/12 11:43:22;;;;;;;2.13;0.93;;;23.60;99.90;;;;;;5059422;28;20048;-79
2023/07/12 11:45:55;;;;;;;5.70;1.70;;;23.70;99.90;;;;;;5059127;28;20389;-80
2023/07/12 11:48:23;;;;;;;3.30;1.50;;;23.80;99.90;;;;;;5058761;28;20080;-79
2023/07/12 11:50:52;;;;;;;4.05;1.33;;;24.00;99.90;;;;;;5058151;28;20075;-81
2023/07/12 11:53:19;;;;;;;5.88;1.40;;;24.10;99.90;;;;;;5060162;28;20052;-81
2023/07/12 11:55:49;;;;;;;2.78;1.02;;;24.20;99.90;;;;;;5056866;28;21280;-80
2023/07/12 11:58:17;;;;;;;3.60;1.55;;;24.20;99.90;;;;;;5062692;28;20198;-81
2023/07/12 12:00:45;;;;;;;7.03;1.52;;;24.30;99.90;;;;;;5053463;28;20115;-80
2023/07/12 12:03:13;;;;;;;4.60;1.60;;;24.40;99.90;;;;;;5041793;28;20148;-81
2023/07/12 12:05:40;;;;;;;3.50;1.52;;;24.50;99.90;;;;;;5058986;28;20068;-81
2023/07/12 12:08:10;;;;;;;4.40;1.70;;;24.50;99.90;;;;;;5037927;28;20040;-81
2023/07/12 12:10:38;;;;;;;5.20;1.63;;;24.60;99.90;;;;;;5059513;28;20041;-81
2023/07/12 12:13:19;;;;;;;3.10;0.93;;;24.70;99.90;;;;;;5039654;28;20460;-81
2023/07/12 12:16:19;;;;;;;3.58;1.15;;;24.70;99.90;;;;;;5057266;28;20399;-81
2023/07/12 12:18:52;;;;;;;;;;;24.60;99.90;;;;;;5041821;28;20124;-81
2023/07/12 12:21:19;;;;;;;2.70;1.17;;;24.30;99.90;;;;;;5052637;28;19934;-82
2023/07/12 12:23:52;;;;;;;2.60;0.82;;;24.30;99.90;;;;;;5040701;28;20072;-82
2023/07/12 12:26:28;;;;;;;3.47;1.17;;;24.30;99.90;;;;;;5051705;28;20048;-80
2023/07/12 12:29:05;;;;;;;2.92;1.15;;;24.50;99.70;;;;;;5039770;28;20075;-81
2023/07/12 12:31:32;;;;;;;3.72;1.30;;;24.60;99.90;;;;;;5040239;28;21374;-83
2023/07/12 12:34:12;;;;;;;6.25;1.25;;;24.70;99.20;;;;;;5039231;28;20204;-81
2023/07/12 12:36:38;;;;;;;;;;;24.70;98.70;;;;;;5056871;28;20398;-83
2023/07/12 12:39:12;;;;;;;5.43;1.30;;;24.60;99.90;;;;;;5027263;28;20055;-82
2023/07/12 12:41:43;;;;;;;4.07;1.08;;;24.50;98.50;;;;;;5037662;28;20178;-82
2023/07/12 12:44:15;;;;;;;2.15;1.00;;;24.60;99.90;;;;;;5036109;28;20095;-83
2023/07/12 12:46:42;;;;;;;2.20;1.17;;;24.70;98.40;;;;;;5038817;28;20068;-83
2023/07/12 12:49:30;;;;;;;3.72;1.15;;;24.70;97.00;;;;;;5035438;28;20554;-82
2023/07/12 12:52:08;;;;;;;3.25;1.08;;;24.70;97.50;;;;;;5055198;28;20465;-82